Time;durP1;ratioP1;P1;durP2;ratioP2;P2;SDS_P1;SDS_P2;PMS_P1;PMS_P2;Temp;Humidity;BMP_temperature;BMP_pressure;BME280_temperature;BME280_humidity;BME280_pressure;Samples;Min_cycle;Max_cycle;Signal;HPM_P1;HPM_P2
2023/12/13 00:02:15;;;;;;;10.20;4.93;;;;;;;4.42;100.00;94438.41;4992549;28;20213;-78
2023/12/13 00:04:42;;;;;;;0.68;0.68;;;;;;;4.39;100.00;94438.97;4992969;28;20241;-78
2023/12/13 00:07:09;;;;;;;0.30;0.30;;;;;;;4.44;100.00;94431.66;4992213;28;20276;-78
2023/12/13 00:09:35;;;;;;;0.88;0.88;;;;;;;4.52;100.00;94422.94;4992351;28;20579;-78
2023/12/13 00:12:04;;;;;;;1.98;0.93;;;;;;;4.33;100.00;94413.34;4992079;28;20214;-77
2023/12/13 00:14:31;;;;;;;1.85;1.75;;;;;;;4.26;100.00;94430.59;4992173;28;20214;-77
2023/12/13 00:16:59;;;;;;;0.60;0.60;;;;;;;4.10;100.00;94439.19;4992034;28;20548;-77
2023/12/13 00:19:26;;;;;;;1.05;0.85;;;;;;;4.01;100.00;94439.03;4992034;28;20241;-76
2023/12/13 00:21:53;;;;;;;1.33;1.25;;;;;;;4.07;100.00;94432.53;4992147;28;20210;-78
2023/12/13 00:24:20;;;;;;;0.80;0.80;;;;;;;4.11;100.00;94438.88;4992173;28;20213;-77
2023/12/13 00:26:48;;;;;;;2.22;1.50;;;;;;;4.08;100.00;94423.41;4992282;28;20592;-77
2023/12/13 00:29:15;;;;;;;1.05;1.05;;;;;;;4.26;100.00;94435.16;4991666;28;20228;-78
2023/12/13 00:31:42;;;;;;;2.92;1.75;;;;;;;4.21;100.00;94424.53;4992151;28;20230;-77
2023/12/13 00:34:10;;;;;;;0.20;0.20;;;;;;;4.23;100.00;94425.84;4981522;28;20219;-77
2023/12/13 00:36:37;;;;;;;0.63;0.63;;;;;;;4.39;100.00;94412.16;4989588;28;20289;-79
2023/12/13 00:39:05;;;;;;;0.65;0.65;;;;;;;4.47;100.00;94420.34;4991224;28;20320;-76
2023/12/13 00:41:32;;;;;;;1.65;1.55;;;;;;;4.46;100.00;94415.28;4991445;28;20304;-76
2023/12/13 00:43:59;;;;;;;0.63;0.63;;;;;;;4.61;100.00;94409.66;4991873;28;20288;-77
2023/12/13 00:46:26;;;;;;;0.30;0.30;;;;;;;4.60;100.00;94414.22;4991717;28;20336;-77
2023/12/13 00:48:53;;;;;;;0.85;0.82;;;;;;;4.65;100.00;94416.78;4991559;28;20245;-78
2023/12/13 00:51:23;;;;;;;0.20;0.20;;;;;;;4.55;100.00;94408.13;4991153;28;20221;-78
2023/12/13 00:53:50;;;;;;;0.40;0.40;;;;;;;4.41;100.00;94400.06;4991669;28;20600;-77
2023/12/13 00:56:17;;;;;;;2.55;1.15;;;;;;;4.41;100.00;94410.00;4991310;28;20205;-77
2023/12/13 00:58:47;;;;;;;2.90;1.00;;;;;;;4.40;100.00;94403.03;4991254;28;20295;-77
2023/12/13 01:01:16;;;;;;;1.25;1.15;;;;;;;4.31;100.00;94394.06;4991417;28;20592;-77
2023/12/13 01:03:42;;;;;;;1.80;1.08;;;;;;;4.21;100.00;94376.28;4991135;28;20205;-77
2023/12/13 01:06:09;;;;;;;0.40;0.40;;;;;;;4.28;100.00;94369.44;4991079;28;20576;-78
2023/12/13 01:08:38;;;;;;;5.22;1.05;;;;;;;4.38;100.00;94368.47;4991058;28;20272;-76
2023/12/13 01:11:08;;;;;;;4.65;1.75;;;;;;;4.43;100.00;94360.34;4990724;28;20288;-76
2023/12/13 01:13:35;;;;;;;1.98;1.88;;;;;;;4.63;100.00;94345.78;4991050;28;20217;-78
2023/12/13 01:16:02;;;;;;;1.50;1.48;;;;;;;4.52;100.00;94347.03;4990887;28;20333;-76
2023/12/13 01:18:29;;;;;;;4.57;0.95;;;;;;;4.49;100.00;94332.34;4990666;28;20209;-77
2023/12/13 01:20:56;;;;;;;1.55;1.45;;;;;;;4.41;100.00;94337.59;4990893;28;20213;-78
2023/12/13 01:23:23;;;;;;;0.30;0.30;;;;;;;4.23;100.00;94337.38;4990623;28;20300;-78
2023/12/13 01:25:51;;;;;;;0.47;0.47;;;;;;;4.16;100.00;94344.19;4990994;28;20293;-77
2023/12/13 01:28:18;;;;;;;3.05;2.75;;;;;;;4.11;100.00;94334.34;4989598;28;20213;-77
2023/12/13 01:30:44;;;;;;;0.45;0.45;;;;;;;4.27;100.00;94335.69;4991025;28;20205;-79
2023/12/13 01:33:11;;;;;;;0.88;0.65;;;;;;;4.26;100.00;94328.72;4990850;28;20206;-78
2023/12/13 01:35:38;;;;;;;1.45;1.35;;;;;;;4.27;100.00;94346.41;4990936;28;20654;-77
2023/12/13 01:38:05;;;;;;;0.20;0.20;;;;;;;3.98;100.00;94345.81;4990492;28;20260;-76
2023/12/13 01:40:32;;;;;;;0.43;0.43;;;;;;;4.02;100.00;94343.34;4990633;28;20225;-78
2023/12/13 01:43:00;;;;;;;0.95;0.93;;;;;;;4.17;100.00;94368.03;4990698;28;20658;-78
2023/12/13 01:45:27;;;;;;;0.40;0.40;;;;;;;3.98;100.00;94364.56;4990511;28;20213;-77
2023/12/13 01:47:54;;;;;;;0.38;0.38;;;;;;;4.03;100.00;94350.31;4990314;28;20213;-78
2023/12/13 01:50:25;;;;;;;0.50;0.50;;;;;;;4.14;100.00;94333.75;4990612;28;20221;-78
2023/12/13 01:52:53;;;;;;;0.63;0.63;;;;;;;4.34;100.00;94327.25;4990877;28;20232;-78
2023/12/13 01:55:20;;;;;;;0.20;0.20;;;;;;;4.45;100.00;94319.81;4990212;28;20210;-77
2023/12/13 01:57:48;;;;;;;0.47;0.47;;;;;;;4.40;100.00;94322.59;4990581;28;20333;-77
2023/12/13 02:00:17;;;;;;;0.80;0.45;;;;;;;4.39;100.00;94316.44;4990373;28;20233;-77
2023/12/13 02:02:47;;;;;;;1.60;1.50;;;;;;;4.25;100.00;94326.34;4990413;28;20206;-77
2023/12/13 02:05:14;;;;;;;3.92;1.25;;;;;;;4.07;100.00;94313.81;4990726;28;20611;-77
2023/12/13 02:07:43;;;;;;;1.00;0.95;;;;;;;4.46;100.00;94310.69;4990324;28;20210;-76
2023/12/13 02:10:10;;;;;;;0.47;0.47;;;;;;;4.26;100.00;94315.31;4990533;28;20283;-78
2023/12/13 02:12:38;;;;;;;5.72;0.98;;;;;;;4.34;100.00;94307.69;4990744;28;20217;-77
2023/12/13 02:15:06;;;;;;;0.25;0.25;;;;;;;4.42;100.00;94288.22;4989948;28;20260;-76
2023/12/13 02:17:34;;;;;;;0.38;0.38;;;;;;;4.41;100.00;94276.72;4990416;28;20268;-76
2023/12/13 02:20:01;;;;;;;0.77;0.77;;;;;;;4.20;100.00;94276.31;4990482;28;20234;-78
2023/12/13 02:22:30;;;;;;;0.73;0.73;;;;;;;4.18;100.00;94270.44;4990514;28;20225;-77
2023/12/13 02:24:59;;;;;;;1.00;1.00;;;;;;;4.40;100.00;94271.66;4982485;28;20217;-78
2023/12/13 02:27:29;;;;;;;3.90;2.70;;;;;;;4.49;100.00;94278.72;4984621;28;20209;-77
2023/12/13 02:29:56;;;;;;;0.63;0.63;;;;;;;4.44;100.00;94286.06;4986718;28;20232;-77
2023/12/13 02:32:23;;;;;;;0.60;0.60;;;;;;;4.47;100.00;94288.94;4988198;28;20206;-77
2023/12/13 02:34:50;;;;;;;0.38;0.38;;;;;;;4.76;100.00;94277.91;4989781;28;20593;-77
2023/12/13 02:37:17;;;;;;;0.47;0.47;;;;;;;4.76;100.00;94277.91;4989806;28;20210;-77
2023/12/13 02:39:45;;;;;;;1.45;0.88;;;;;;;4.15;100.00;94268.34;4992646;28;20249;-77
2023/12/13 02:42:12;;;;;;;3.55;1.77;;;;;;;4.19;100.00;94263.19;4988719;28;20205;-77
2023/12/13 02:44:42;;;;;;;0.40;0.40;;;;;;;4.06;100.00;94243.34;4986267;28;20213;-77
2023/12/13 02:47:09;;;;;;;0.50;0.50;;;;;;;4.35;100.00;94240.38;4993620;28;20209;-77
2023/12/13 02:49:36;;;;;;;0.30;0.30;;;;;;;4.27;100.00;94239.16;4993469;28;20216;-78
2023/12/13 02:52:03;;;;;;;0.73;0.73;;;;;;;4.25;100.00;94259.31;4993493;28;20213;-77
2023/12/13 02:54:30;;;;;;;2.22;1.05;;;;;;;4.17;100.00;94260.00;4993646;28;20277;-76
2023/12/13 02:56:58;;;;;;;1.67;1.58;;;;;;;4.27;100.00;94263.28;4993068;28;20213;-77
2023/12/13 02:59:25;;;;;;;3.75;0.75;;;;;;;4.15;100.00;94263.00;4993073;28;20583;-77
2023/12/13 03:01:52;;;;;;;0.85;0.80;;;;;;;4.51;100.00;94267.69;4991623;28;20201;-76
2023/12/13 03:04:19;;;;;;;0.75;0.75;;;;;;;4.14;100.00;94261.41;4992995;28;20233;-75
2023/12/13 03:06:46;;;;;;;0.60;0.60;;;;;;;4.15;100.00;94267.56;4992380;28;20213;-76
2023/12/13 03:09:13;;;;;;;1.23;1.15;;;;;;;4.18;100.00;94262.41;4992947;28;20291;-76
2023/12/13 03:11:40;;;;;;;0.40;0.40;;;;;;;4.35;100.00;94261.03;4991546;28;20264;-75
2023/12/13 03:14:08;;;;;;;0.20;0.20;;;;;;;4.51;100.00;94249.69;4992001;28;20241;-75
2023/12/13 03:16:35;;;;;;;0.20;0.20;;;;;;;4.71;100.00;94243.13;4992663;28;20209;-77
2023/12/13 03:19:01;;;;;;;0.40;0.40;;;;;;;4.84;100.00;94255.72;4987722;28;20202;-76
2023/12/13 03:21:28;;;;;;;1.25;1.25;;;;;;;4.82;100.00;94278.59;4987304;28;20205;-77
2023/12/13 03:23:55;;;;;;;1.48;1.38;;;;;;;4.76;100.00;94272.56;4991746;28;20229;-77
2023/12/13 03:26:22;;;;;;;5.80;1.25;;;;;;;4.79;100.00;94276.50;4992513;28;20217;-78
2023/12/13 03:28:48;;;;;;;18.70;1.70;;;;;;;4.99;100.00;94276.88;4992444;28;20241;-76
2023/12/13 03:31:17;;;;;;;5.70;1.05;;;;;;;5.03;100.00;94287.03;4988473;28;20213;-77
2023/12/13 03:33:43;;;;;;;0.95;0.95;;;;;;;4.79;100.00;94288.03;4992205;28;20201;-77
2023/12/13 03:36:15;;;;;;;1.15;1.13;;;;;;;4.90;100.00;94284.06;4992636;28;20217;-78
2023/12/13 03:38:43;;;;;;;0.30;0.30;;;;;;;4.83;100.00;94272.13;4992627;28;20661;-77
2023/12/13 03:41:10;;;;;;;0.80;0.80;;;;;;;4.85;100.00;94284.16;4989684;28;20252;-76
2023/12/13 03:43:37;;;;;;;0.93;0.90;;;;;;;4.81;100.00;94283.16;4985010;28;20522;-77
2023/12/13 03:46:05;;;;;;;0.70;0.70;;;;;;;4.80;100.00;94284.25;4992685;28;20213;-78
2023/12/13 03:48:34;;;;;;;1.55;1.45;;;;;;;4.67;100.00;94287.75;4992882;28;20599;-77
2023/12/13 03:51:02;;;;;;;1.65;0.93;;;;;;;4.45;100.00;94287.66;4990046;28;20652;-77
2023/12/13 03:53:29;;;;;;;1.42;1.13;;;;;;;4.60;100.00;94285.47;4991568;28;20255;-77
2023/12/13 03:55:56;;;;;;;1.38;1.33;;;;;;;4.34;100.00;94273.66;4991959;28;20210;-77
2023/12/13 03:58:23;;;;;;;1.75;1.35;;;;;;;4.62;100.00;94277.13;4992156;28;20654;-77
2023/12/13 04:00:49;;;;;;;1.10;1.10;;;;;;;4.73;100.00;94269.66;4987441;28;20641;-77
2023/12/13 04:03:16;;;;;;;0.90;0.90;;;;;;;4.90;100.00;94262.59;4988374;28;20289;-78
2023/12/13 04:05:45;;;;;;;2.60;1.92;;;;;;;4.98;100.00;94267.25;4985867;28;20617;-78
2023/12/13 04:08:11;;;;;;;2.38;1.50;;;;;;;4.77;100.00;94267.97;4984161;28;20210;-78
2023/12/13 04:10:38;;;;;;;2.17;1.35;;;;;;;4.71;100.00;94245.03;4985037;28;20202;-77
2023/12/13 04:13:05;;;;;;;0.47;0.47;;;;;;;4.98;100.00;94245.78;4982657;28;20205;-78
2023/12/13 04:15:32;;;;;;;0.82;0.82;;;;;;;8.43;100.00;94232.56;4984712;28;20674;-78
2023/12/13 04:17:59;;;;;;;0.90;0.90;;;;;;;7.69;100.00;94240.94;4987097;28;20201;-79
2023/12/13 04:20:26;;;;;;;0.60;0.60;;;;;;;6.88;100.00;94248.81;4986079;28;20633;-79
2023/12/13 04:22:54;;;;;;;4.47;1.33;;;;;;;5.87;100.00;94244.25;4985392;28;20224;-80
2023/12/13 04:25:21;;;;;;;0.30;0.30;;;;;;;5.32;100.00;94241.81;4986107;28;20209;-79
2023/12/13 04:27:48;;;;;;;0.20;0.20;;;;;;;5.23;100.00;94230.19;4986825;28;20582;-80
2023/12/13 04:30:15;;;;;;;1.02;1.02;;;;;;;5.17;100.00;94218.00;4987313;28;20217;-79
2023/12/13 04:32:42;;;;;;;0.50;0.50;;;;;;;4.93;100.00;94212.88;4985336;28;20417;-80
2023/12/13 04:35:10;;;;;;;0.60;0.60;;;;;;;4.93;100.00;94227.09;4984348;28;20230;-80
2023/12/13 04:37:37;;;;;;;0.40;0.40;;;;;;;4.89;100.00;94219.97;4983573;28;20206;-78
2023/12/13 04:40:07;;;;;;;0.52;0.52;;;;;;;4.74;100.00;94204.19;4979413;28;20307;-78
2023/12/13 04:42:34;;;;;;;0.70;0.65;;;;;;;4.75;100.00;94219.19;4989132;28;20205;-79
2023/12/13 04:45:02;;;;;;;2.33;1.08;;;;;;;4.88;100.00;94231.78;4989588;28;20632;-80
2023/12/13 04:47:29;;;;;;;0.47;0.47;;;;;;;4.92;100.00;94220.13;4980797;28;20207;-80
2023/12/13 04:49:55;;;;;;;0.20;0.20;;;;;;;4.77;100.00;94215.13;4980985;28;20211;-81
2023/12/13 04:52:22;;;;;;;1.35;1.15;;;;;;;4.78;100.00;94197.94;4988447;28;20210;-80
2023/12/13 04:54:49;;;;;;;1.65;1.15;;;;;;;4.54;100.00;94216.91;4989406;28;20209;-80
2023/12/13 04:57:17;;;;;;;0.30;0.30;;;;;;;4.43;100.00;94207.50;4989015;28;20221;-80
2023/12/13 04:59:44;;;;;;;0.60;0.60;;;;;;;4.25;100.00;94198.47;4971627;28;20245;-83
2023/12/13 05:02:11;;;;;;;4.15;0.95;;;;;;;4.46;100.00;94193.50;4989621;28;20213;-81
2023/12/13 05:04:38;;;;;;;1.45;1.35;;;;;;;4.25;100.00;94209.19;4990637;28;20193;-81
2023/12/13 05:07:05;;;;;;;0.70;0.65;;;;;;;4.38;100.00;94233.59;4993371;28;20201;-77
2023/12/13 05:09:35;;;;;;;0.70;0.70;;;;;;;4.64;100.00;94215.94;4985234;28;20206;-78
2023/12/13 05:12:03;;;;;;;2.90;2.10;;;;;;;4.78;100.00;94197.94;4980358;28;20220;-79
2023/12/13 05:14:31;;;;;;;0.40;0.40;;;;;;;4.66;100.00;94176.16;4991036;28;20217;-79
2023/12/13 05:16:58;;;;;;;0.35;0.35;;;;;;;4.49;100.00;94166.09;4990204;28;20610;-82
2023/12/13 05:19:25;;;;;;;1.00;1.00;;;;;;;4.68;100.00;94190.06;4988440;28;20535;-82
2023/12/13 05:21:54;;;;;;;0.30;0.30;;;;;;;4.57;100.00;94157.31;4986017;28;20618;-82
2023/12/13 05:24:21;;;;;;;0.90;0.85;;;;;;;4.36;100.00;94166.09;4990184;28;20606;-81
2023/12/13 05:26:48;;;;;;;1.63;1.15;;;;;;;3.99;100.00;94170.56;4990425;28;20221;-82
2023/12/13 05:29:15;;;;;;;0.50;0.50;;;;;;;3.71;100.00;94182.34;4990064;28;20284;-83
2023/12/13 05:31:44;;;;;;;0.77;0.75;;;;;;;3.52;100.00;94201.16;4984778;28;20216;-81
2023/12/13 05:34:13;;;;;;;10.30;8.30;;;;;;;3.68;100.00;94193.66;4990031;28;20580;-83
2023/12/13 05:36:40;;;;;;;0.35;0.35;;;;;;;3.86;100.00;94198.16;4982930;28;20205;-82
2023/12/13 05:39:08;;;;;;;0.60;0.60;;;;;;;4.17;100.00;94204.53;4988654;28;20246;-81
2023/12/13 05:41:35;;;;;;;2.67;1.85;;;;;;;4.19;100.00;94196.97;4991609;28;20236;-82
2023/12/13 05:44:01;;;;;;;0.68;0.65;;;;;;;4.37;100.00;94191.81;4991150;28;20231;-81
2023/12/13 05:46:33;;;;;;;7.22;1.38;;;;;;;4.57;100.00;94189.50;4990799;28;20213;-81
2023/12/13 05:49:03;;;;;;;1.45;1.42;;;;;;;4.48;100.00;94195.88;4989268;28;20325;-82
2023/12/13 05:51:31;;;;;;;0.20;0.20;;;;;;;4.07;100.00;94204.72;4988521;28;20377;-81
2023/12/13 05:53:59;;;;;;;1.45;1.00;;;;;;;4.01;100.00;94211.25;4991502;28;20650;-86
2023/12/13 05:56:27;;;;;;;0.40;0.40;;;;;;;3.98;100.00;94214.53;4991472;28;20204;-80
2023/12/13 05:58:55;;;;;;;2.00;1.90;;;;;;;4.27;100.00;94211.56;4990180;28;20694;-83
2023/12/13 06:01:23;;;;;;;2.85;2.63;;;;;;;4.37;100.00;94210.59;4989647;28;20229;-81
2023/12/13 06:03:50;;;;;;;1.00;1.00;;;;;;;4.54;100.00;94200.03;4989636;28;20218;-79
2023/12/13 06:06:21;;;;;;;0.88;0.88;;;;;;;4.77;100.00;94172.19;4991070;28;20205;-80
2023/12/13 06:08:50;;;;;;;0.30;0.30;;;;;;;4.92;100.00;94163.78;4986435;28;20233;-80
2023/12/13 06:11:17;;;;;;;3.33;1.58;;;;;;;5.00;100.00;94171.13;4990653;28;20609;-80
2023/12/13 06:13:44;;;;;;;2.60;1.50;;;;;;;4.86;100.00;94191.03;4992237;28;20229;-82
2023/12/13 06:16:12;;;;;;;3.85;1.58;;;;;;;5.07;100.00;94202.09;4994736;28;20221;-82
2023/12/13 06:18:39;;;;;;;1.13;0.90;;;;;;;5.08;100.00;94198.31;4994240;28;20205;-79
2023/12/13 06:21:07;;;;;;;0.90;0.85;;;;;;;5.10;100.00;94180.03;4994776;28;20237;-80
2023/12/13 06:23:37;;;;;;;2.30;1.55;;;;;;;5.04;100.00;94170.53;4994590;28;20213;-82
2023/12/13 06:26:04;;;;;;;1.35;1.25;;;;;;;5.10;100.00;94177.34;4995211;28;20225;-81
2023/12/13 06:28:31;;;;;;;7.80;2.10;;;;;;;5.05;100.00;94161.38;4994123;28;20224;-80
2023/12/13 06:30:57;;;;;;;1.00;0.90;;;;;;;5.04;100.00;94165.16;4994869;28;20554;-83
2023/12/13 06:33:24;;;;;;;2.20;1.60;;;;;;;5.22;100.00;94156.91;4989464;28;20206;-83
2023/12/13 06:35:51;;;;;;;1.65;1.45;;;;;;;5.43;100.00;94156.41;4986491;28;20217;-83
2023/12/13 06:38:18;;;;;;;2.97;2.70;;;;;;;5.64;100.00;94158.28;4993564;28;20229;-86
2023/12/13 06:40:49;;;;;;;1.13;1.13;;;;;;;5.78;100.00;94158.19;4994393;28;20222;-84
2023/12/13 06:43:16;;;;;;;2.55;1.27;;;;;;;5.88;100.00;94151.75;4994190;28;20209;-84
2023/12/13 06:45:43;;;;;;;1.92;1.83;;;;;;;6.05;100.00;94151.84;4994130;28;20210;-84
2023/12/13 06:48:10;;;;;;;3.03;1.15;;;;;;;5.83;100.00;94154.59;4993902;28;20708;-84
2023/12/13 06:50:36;;;;;;;2.88;1.60;;;;;;;6.02;100.00;94157.84;4994714;28;20212;-84
2023/12/13 06:53:04;;;;;;;2.03;1.90;;;;;;;5.89;100.00;94123.81;4994483;28;20210;-83
2023/12/13 06:55:30;;;;;;;1.42;1.20;;;;;;;5.89;100.00;94137.25;4994076;28;20222;-85
2023/12/13 06:57:59;;;;;;;0.80;0.80;;;;;;;6.10;100.00;94127.53;4994365;28;20252;-85
2023/12/13 07:00:27;;;;;;;0.40;0.40;;;;;;;5.82;100.00;94131.50;4993963;28;20234;-83
2023/12/13 07:02:54;;;;;;;1.95;1.38;;;;;;;5.93;100.00;94140.91;4993446;28;20210;-79
2023/12/13 07:05:21;;;;;;;1.85;1.23;;;;;;;5.99;100.00;94147.72;4993106;28;20209;-78
2023/12/13 07:07:48;;;;;;;1.50;1.40;;;;;;;6.01;100.00;94145.53;4992542;28;20214;-80
2023/12/13 07:10:18;;;;;;;3.85;1.83;;;;;;;6.41;100.00;94152.47;4991730;28;20671;-78
2023/12/13 07:12:46;;;;;;;1.77;1.67;;;;;;;6.37;100.00;94143.44;4992558;28;20221;-78
2023/12/13 07:15:14;;;;;;;2.58;1.70;;;;;;;6.90;100.00;94145.09;4992917;28;20612;-79
2023/12/13 07:17:42;;;;;;;2.67;2.47;;;;;;;6.64;100.00;94139.69;4992281;28;20655;-79
2023/12/13 07:20:11;;;;;;;1.25;1.10;;;;;;;6.58;100.00;94145.50;4975078;28;20307;-79
2023/12/13 07:22:39;;;;;;;3.38;1.73;;;;;;;7.03;100.00;94133.38;4992017;28;20221;-78
2023/12/13 07:25:07;;;;;;;0.95;0.93;;;;;;;7.08;100.00;94125.16;4991774;28;20241;-79
2023/12/13 07:27:35;;;;;;;1.08;1.08;;;;;;;7.17;99.87;94127.81;4992523;28;20316;-80
2023/12/13 07:30:03;;;;;;;2.85;2.53;;;;;;;6.98;99.72;94125.44;4992943;28;20217;-80
2023/12/13 07:32:33;;;;;;;0.60;0.60;;;;;;;7.06;99.79;94138.13;4992398;28;20555;-79
2023/12/13 07:34:59;;;;;;;1.85;1.75;;;;;;;7.09;100.00;94140.19;4992828;28;20629;-78
2023/12/13 07:37:26;;;;;;;2.38;1.98;;;;;;;7.43;99.69;94130.47;4992470;28;20217;-78
2023/12/13 07:39:53;;;;;;;2.35;2.15;;;;;;;7.49;97.74;94119.22;4991946;28;20248;-78
2023/12/13 07:42:20;;;;;;;1.60;1.27;;;;;;;7.45;97.55;94123.66;4992248;28;20229;-78
2023/12/13 07:44:47;;;;;;;1.13;1.00;;;;;;;7.70;97.43;94113.94;4992423;28;20209;-80
2023/12/13 07:47:14;;;;;;;4.57;1.42;;;;;;;7.47;95.45;94115.28;4992126;28;20225;-78
2023/12/13 07:49:43;;;;;;;0.82;0.70;;;;;;;7.64;96.77;94120.63;4991339;28;20217;-78
2023/12/13 07:52:09;;;;;;;1.40;1.30;;;;;;;7.84;94.38;94117.22;4992480;28;20213;-79
2023/12/13 07:54:37;;;;;;;0.55;0.55;;;;;;;7.67;94.56;94114.56;4993273;28;20213;-78
2023/12/13 07:57:04;;;;;;;0.45;0.45;;;;;;;7.36;96.03;94124.81;4992895;28;20304;-78
2023/12/13 07:59:31;;;;;;;0.98;0.98;;;;;;;7.16;95.65;94120.84;4979580;28;20228;-77
2023/12/13 08:01:58;;;;;;;3.22;1.63;;;;;;;7.09;96.97;94115.97;4975273;28;20698;-79
2023/12/13 08:04:25;;;;;;;1.48;1.02;;;;;;;7.46;96.62;94146.00;4992200;28;20224;-79
2023/12/13 08:06:53;;;;;;;2.05;0.93;;;;;;;7.66;94.51;94134.53;4992815;28;20249;-78
2023/12/13 08:09:20;;;;;;;1.95;1.00;;;;;;;8.04;93.02;94133.81;4992601;28;20210;-78
2023/12/13 08:11:47;;;;;;;1.48;1.33;;;;;;;7.64;92.92;94134.09;4975007;28;20252;-78
2023/12/13 08:14:14;;;;;;;0.93;0.93;;;;;;;7.39;95.09;94138.41;4992373;28;20298;-78
2023/12/13 08:16:42;;;;;;;2.58;2.08;;;;;;;7.39;94.86;94130.31;4992682;28;20713;-78
2023/12/13 08:19:10;;;;;;;0.82;0.82;;;;;;;7.50;95.78;94114.63;4992310;28;20270;-79
2023/12/13 08:21:40;;;;;;;0.45;0.45;;;;;;;7.96;95.57;94118.44;4992587;28;20564;-78
2023/12/13 08:24:10;;;;;;;1.45;1.35;;;;;;;7.82;93.73;94105.97;4992924;28;20743;-77
2023/12/13 08:26:36;;;;;;;1.42;1.33;;;;;;;7.90;93.67;94106.25;4992245;28;20244;-79
2023/12/13 08:29:04;;;;;;;0.95;0.95;;;;;;;7.80;93.87;94110.09;4992639;28;20206;-78
2023/12/13 08:31:31;;;;;;;2.65;1.50;;;;;;;7.66;93.15;94118.38;4992134;28;20241;-80
2023/12/13 08:33:58;;;;;;;1.52;1.42;;;;;;;7.56;94.68;94104.47;4992520;28;20212;-78
2023/12/13 08:36:25;;;;;;;0.95;0.90;;;;;;;8.09;93.03;94114.72;4992103;28;20213;-79
2023/12/13 08:38:52;;;;;;;0.75;0.75;;;;;;;7.85;91.73;94110.72;4992164;28;20324;-79
2023/12/13 08:41:20;;;;;;;1.77;1.52;;;;;;;8.31;91.21;94133.38;4992012;28;20238;-79
2023/12/13 08:43:47;;;;;;;0.65;0.65;;;;;;;8.07;90.75;94108.88;4992082;28;20221;-78
2023/12/13 08:46:14;;;;;;;0.85;0.85;;;;;;;7.98;92.26;94125.09;4991887;28;20311;-78
2023/12/13 08:48:41;;;;;;;0.35;0.35;;;;;;;8.06;92.55;94128.91;4991876;28;20212;-78
2023/12/13 08:51:08;;;;;;;0.60;0.60;;;;;;;8.04;91.66;94129.22;4992339;28;20581;-77
2023/12/13 08:53:35;;;;;;;0.88;0.85;;;;;;;8.17;91.22;94127.41;4991766;28;20221;-78
2023/12/13 08:56:01;;;;;;;1.30;1.13;;;;;;;8.29;89.45;94119.41;4991646;28;20217;-78
2023/12/13 08:58:30;;;;;;;5.78;1.10;;;;;;;8.70;89.82;94137.63;4991719;28;20247;-78
2023/12/13 09:00:56;;;;;;;1.08;0.98;;;;;;;8.66;89.30;94127.81;4992420;28;20573;-79
2023/12/13 09:03:23;;;;;;;1.42;1.25;;;;;;;8.23;90.61;94114.50;4991598;28;20218;-78
2023/12/13 09:05:50;;;;;;;1.05;1.05;;;;;;;8.57;91.38;94129.78;4991669;28;20628;-78
2023/12/13 09:08:17;;;;;;;1.75;1.50;;;;;;;8.67;89.77;94115.88;4991519;28;20550;-79
2023/12/13 09:10:44;;;;;;;0.50;0.50;;;;;;;8.39;91.06;94086.69;4992333;28;20214;-78
2023/12/13 09:13:11;;;;;;;2.45;1.67;;;;;;;8.76;89.52;94103.09;4991777;28;20209;-78
2023/12/13 09:15:39;;;;;;;11.52;5.78;;;;;;;8.21;90.70;94085.16;4991725;28;20205;-78
2023/12/13 09:18:06;;;;;;;0.85;0.77;;;;;;;8.42;91.65;94096.84;4991365;28;20205;-78
2023/12/13 09:20:33;;;;;;;3.05;1.95;;;;;;;8.40;89.64;94066.69;4991535;28;20235;-79
2023/12/13 09:23:00;;;;;;;0.52;0.52;;;;;;;8.56;88.94;94058.78;4991794;28;20598;-78
2023/12/13 09:25:27;;;;;;;0.70;0.70;;;;;;;8.95;88.08;94060.22;4991596;28;20217;-78
2023/12/13 09:27:54;;;;;;;1.15;1.15;;;;;;;9.31;86.33;94056.09;4991147;28;20210;-79
2023/12/13 09:30:21;;;;;;;1.95;1.83;;;;;;;9.86;84.94;94056.44;4991376;28;20236;-77
2023/12/13 09:32:49;;;;;;;2.45;2.20;;;;;;;10.19;82.62;94063.69;4991383;28;20208;-78
2023/12/13 09:35:16;;;;;;;0.98;0.95;;;;;;;9.93;81.51;94045.06;4978462;28;20220;-78
2023/12/13 09:37:43;;;;;;;3.35;2.72;;;;;;;9.48;84.06;94050.50;4991051;28;20624;-77
2023/12/13 09:40:16;;;;;;;0.90;0.90;;;;;;;9.53;82.72;94058.41;4990623;28;20237;-78
2023/12/13 09:42:45;;;;;;;3.75;2.58;;;;;;;8.93;83.23;94081.38;4991089;28;20312;-78
2023/12/13 09:45:16;;;;;;;1.05;0.95;;;;;;;9.21;85.31;94068.91;4981577;28;20222;-78
2023/12/13 09:47:43;;;;;;;1.20;1.13;;;;;;;9.80;82.65;94057.78;4990609;28;20217;-77
2023/12/13 09:50:12;;;;;;;2.30;2.05;;;;;;;9.91;79.83;94039.97;4991061;28;20291;-77
2023/12/13 09:52:41;;;;;;;0.98;0.73;;;;;;;10.35;77.94;94044.84;4991081;28;20205;-80
2023/12/13 09:55:10;;;;;;;1.05;0.98;;;;;;;10.50;77.37;94033.34;4991072;28;20213;-78
2023/12/13 09:57:37;;;;;;;0.93;0.93;;;;;;;9.67;79.73;94026.44;4990918;28;20209;-78
2023/12/13 10:00:05;;;;;;;0.98;0.98;;;;;;;10.26;78.49;94021.38;4990968;28;20213;-78
2023/12/13 10:02:33;;;;;;;0.63;0.63;;;;;;;10.41;77.26;94017.19;4990722;28;20717;-78
2023/12/13 10:05:00;;;;;;;2.85;1.23;;;;;;;10.01;78.06;94008.19;4990881;28;20213;-79
2023/12/13 10:07:29;;;;;;;1.20;1.20;;;;;;;10.51;76.66;94014.03;4990472;28;20206;-77
2023/12/13 10:09:56;;;;;;;8.48;4.38;;;;;;;10.68;75.89;94000.22;4990701;28;20224;-78
2023/12/13 10:12:25;;;;;;;0.68;0.68;;;;;;;10.08;77.52;93994.91;4990953;28;20206;-79
2023/12/13 10:14:52;;;;;;;1.25;1.23;;;;;;;10.44;77.78;93989.44;4990789;28;20233;-78
2023/12/13 10:17:21;;;;;;;0.68;0.68;;;;;;;10.76;75.34;93984.97;4990895;28;20690;-79
2023/12/13 10:19:48;;;;;;;0.93;0.93;;;;;;;11.00;75.92;93984.06;4990874;28;20226;-78
2023/12/13 10:22:17;;;;;;;2.67;1.67;;;;;;;10.62;74.80;93949.34;4990619;28;20392;-77
2023/12/13 10:24:46;;;;;;;1.40;1.30;;;;;;;10.07;77.78;93947.31;4990719;28;20213;-79
2023/12/13 10:27:13;;;;;;;1.48;1.30;;;;;;;10.62;76.93;93969.09;4990831;28;20206;-79
2023/12/13 10:29:40;;;;;;;1.48;1.38;;;;;;;10.17;76.79;93931.38;4990851;28;20293;-78
2023/12/13 10:32:07;;;;;;;4.50;1.48;;;;;;;10.38;76.79;93931.28;4991347;28;20236;-78
2023/12/13 10:34:34;;;;;;;0.45;0.45;;;;;;;9.92;77.05;93924.44;4990404;28;20202;-80
2023/12/13 10:37:01;;;;;;;0.38;0.38;;;;;;;10.08;78.38;93941.56;4990927;28;20220;-78
2023/12/13 10:39:30;;;;;;;0.50;0.50;;;;;;;10.35;76.16;93929.25;4990348;28;20332;-79
2023/12/13 10:42:00;;;;;;;3.20;2.53;;;;;;;9.63;78.65;93911.97;4990714;28;20245;-80
2023/12/13 10:44:32;;;;;;;1.30;1.00;;;;;;;9.54;79.86;93914.00;4990516;28;20217;-80
2023/12/13 10:47:02;;;;;;;2.33;2.13;;;;;;;10.04;78.69;93920.94;4990187;28;20205;-78
2023/12/13 10:49:31;;;;;;;6.80;1.15;;;;;;;9.67;79.26;93918.28;4990231;28;20210;-77
2023/12/13 10:51:59;;;;;;;0.35;0.35;;;;;;;9.56;79.93;93917.16;4990617;28;20241;-77
2023/12/13 10:54:26;;;;;;;0.30;0.30;;;;;;;9.43;81.29;93919.03;4990643;28;20318;-77
2023/12/13 10:56:56;;;;;;;0.80;0.80;;;;;;;9.56;81.49;93911.75;4988050;28;20209;-79
2023/12/13 10:59:27;;;;;;;3.17;2.75;;;;;;;9.78;80.53;93911.28;4989657;28;20214;-79
2023/12/13 11:01:56;;;;;;;2.60;1.17;;;;;;;9.50;80.54;93908.47;4992561;28;20234;-78
2023/12/13 11:04:24;;;;;;;0.68;0.68;;;;;;;9.42;81.66;93927.50;4992563;28;20221;-78
2023/12/13 11:06:50;;;;;;;1.63;1.52;;;;;;;10.06;81.13;93924.88;4993493;28;20609;-78
2023/12/13 11:09:21;;;;;;;3.65;1.23;;;;;;;10.51;78.59;93903.03;4993469;28;20264;-77
2023/12/13 11:11:51;;;;;;;1.85;1.75;;;;;;;10.30;78.26;93886.94;4993976;28;20216;-77
2023/12/13 11:14:20;;;;;;;6.18;1.92;;;;;;;10.24;79.71;93906.50;4993822;28;20218;-76
2023/12/13 11:16:50;;;;;;;2.17;1.30;;;;;;;10.53;79.17;93899.94;4993905;28;20685;-76
2023/12/13 11:19:22;;;;;;;0.60;0.60;;;;;;;10.80;78.50;93892.94;4993509;28;20210;-78
2023/12/13 11:21:50;;;;;;;1.02;1.02;;;;;;;10.65;77.48;93879.03;4993739;28;20227;-75
2023/12/13 11:24:22;;;;;;;5.63;1.05;;;;;;;10.11;79.52;93877.88;4993620;28;20213;-76
2023/12/13 11:26:51;;;;;;;2.72;0.80;;;;;;;10.35;79.54;93888.63;4993762;28;20213;-75
2023/12/13 11:29:21;;;;;;;1.52;1.35;;;;;;;10.37;79.55;93885.59;4993401;28;20689;-75
2023/12/13 11:31:57;;;;;;;0.80;0.55;;;;;;;10.68;78.46;93875.63;4993407;28;20206;-75
2023/12/13 11:34:34;;;;;;;0.43;0.40;;;;;;;10.56;79.51;93894.63;4993529;28;20575;-76
2023/12/13 11:37:02;;;;;;;0.85;0.80;;;;;;;10.93;79.56;93875.50;4994044;28;20570;-74